Time;durP1;ratioP1;P1;durP2;ratioP2;P2;SDS_P1;SDS_P2;PMS_P1;PMS_P2;Temp;Humidity;BMP_temperature;BMP_pressure;BME280_temperature;BME280_humidity;BME280_pressure;Samples;Min_cycle;Max_cycle;Signal;HPM_P1;HPM_P2
2022/04/17 00:00:22;;;;;;;1.13;1.07;;;12.30;92.90;;;;;;4840173;29;20447;-59
2022/04/17 00:02:53;;;;;;;2.00;1.20;;;12.40;94.20;;;;;;4851375;29;20462;-59
2022/04/17 00:05:26;;;;;;;1.23;1.13;;;12.30;93.80;;;;;;4845411;29;20821;-59
2022/04/17 00:07:57;;;;;;;1.50;1.20;;;12.00;93.80;;;;;;4840911;29;20475;-59
2022/04/17 00:10:28;;;;;;;1.20;1.10;;;11.70;94.90;;;;;;4841614;29;20828;-59
2022/04/17 00:12:59;;;;;;;0.97;0.90;;;11.50;94.70;;;;;;4846275;29;20569;-59
2022/04/17 00:15:31;;;;;;;1.33;1.20;;;11.50;96.50;;;;;;4847565;29;20454;-60
2022/04/17 00:18:02;;;;;;;1.20;1.10;;;11.70;95.30;;;;;;4847622;29;20497;-59
2022/04/17 00:20:34;;;;;;;1.50;1.40;;;12.00;93.60;;;;;;4840759;29;20470;-60
2022/04/17 00:23:05;;;;;;;2.23;1.10;;;12.20;93.30;;;;;;4845945;29;20569;-60
2022/04/17 00:25:36;;;;;;;2.50;1.37;;;12.60;92.60;;;;;;4843235;29;20513;-60
2022/04/17 00:28:08;;;;;;;2.70;1.70;;;12.60;92.00;;;;;;4847730;29;20479;-59
2022/04/17 00:30:39;;;;;;;1.63;0.97;;;12.50;92.10;;;;;;4848188;29;20469;-60
2022/04/17 00:33:10;;;;;;;1.00;0.90;;;12.60;90.70;;;;;;4836938;29;20555;-54
2022/04/17 00:35:45;;;;;;;1.50;1.20;;;12.60;90.40;;;;;;4837231;29;20478;-63
2022/04/17 00:38:16;;;;;;;1.20;1.10;;;12.50;88.70;;;;;;4832549;29;20478;-61
2022/04/17 00:40:47;;;;;;;1.20;0.77;;;12.50;86.20;;;;;;4841163;29;20474;-58
2022/04/17 00:43:25;;;;;;;1.00;0.90;;;12.30;88.00;;;;;;4841296;29;20470;-59
2022/04/17 00:45:56;;;;;;;0.80;0.80;;;12.30;83.80;;;;;;4846142;29;20501;-59
2022/04/17 00:48:27;;;;;;;1.27;1.17;;;12.20;86.70;;;;;;4845345;29;20466;-57
2022/04/17 00:51:02;;;;;;;1.00;1.00;;;12.20;88.30;;;;;;4849970;29;20578;-57
2022/04/17 00:53:34;;;;;;;1.30;1.00;;;12.10;87.90;;;;;;4846026;29;20485;-60
2022/04/17 00:56:06;;;;;;;0.80;0.80;;;12.10;87.20;;;;;;4840820;29;20489;-60
2022/04/17 00:58:39;;;;;;;1.57;1.00;;;11.90;88.30;;;;;;4843308;29;20482;-63
2022/04/17 01:01:10;;;;;;;1.57;0.67;;;11.90;90.00;;;;;;4839089;29;20455;-64
2022/04/17 01:03:41;;;;;;;1.37;1.27;;;12.00;86.80;;;;;;4838755;29;20479;-65
2022/04/17 01:06:13;;;;;;;2.07;1.90;;;11.90;88.40;;;;;;4845250;29;20497;-62
2022/04/17 01:08:44;;;;;;;4.00;3.60;;;11.90;90.40;;;;;;4833282;29;20463;-65
2022/04/17 01:11:16;;;;;;;3.10;2.53;;;11.80;90.50;;;;;;4840912;29;20493;-65
2022/04/17 01:13:48;;;;;;;4.00;3.70;;;11.70;90.40;;;;;;4841051;29;20463;-64
2022/04/17 01:16:19;;;;;;;1.60;1.50;;;11.50;90.60;;;;;;4838697;29;20958;-63
2022/04/17 01:19:00;;;;;;;0.90;0.90;;;11.40;91.70;;;;;;4840305;29;20497;-63
2022/04/17 01:21:33;;;;;;;0.77;0.77;;;11.30;92.40;;;;;;4846927;29;20508;-63
2022/04/17 01:26:58;;;;;;;1.23;0.97;;;11.30;91.70;;;;;;4846025;29;20495;-60
2022/04/17 01:29:31;;;;;;;1.10;1.10;;;11.20;93.70;;;;;;4840962;29;20480;-61
2022/04/17 01:32:03;;;;;;;0.93;0.83;;;10.90;93.10;;;;;;4845384;29;20477;-61
2022/04/17 01:34:34;;;;;;;3.00;1.00;;;10.90;93.70;;;;;;4843838;29;20929;-60
2022/04/17 01:37:08;;;;;;;1.27;1.17;;;10.80;93.50;;;;;;4851202;29;20522;-60
2022/04/17 01:39:39;;;;;;;1.60;0.83;;;10.70;94.20;;;;;;4852021;29;20502;-60
2022/04/17 01:42:11;;;;;;;0.70;0.70;;;10.60;94.20;;;;;;4839503;29;20459;-61
2022/04/17 01:44:42;;;;;;;1.10;1.00;;;10.40;95.00;;;;;;4851700;29;20502;-63
2022/04/17 01:47:12;;;;;;;1.30;1.20;;;10.40;95.60;;;;;;4850890;29;20484;-60
2022/04/17 01:49:43;;;;;;;1.10;1.10;;;10.30;95.60;;;;;;4850557;29;20466;-62
2022/04/17 01:52:16;;;;;;;0.73;0.73;;;10.30;95.10;;;;;;4850956;29;20462;-61
2022/04/17 01:54:46;;;;;;;0.80;0.80;;;10.20;94.60;;;;;;4849167;29;20482;-60
2022/04/17 01:57:18;;;;;;;1.00;0.90;;;10.10;95.00;;;;;;4852191;29;20977;-61
2022/04/17 01:59:49;;;;;;;0.80;0.80;;;10.10;95.30;;;;;;4853519;29;20469;-61
2022/04/17 02:02:20;;;;;;;2.53;1.13;;;10.20;95.40;;;;;;4850817;29;20478;-62
2022/04/17 02:04:51;;;;;;;1.43;0.77;;;10.40;94.80;;;;;;4849858;29;20573;-61
2022/04/17 02:07:24;;;;;;;1.67;1.57;;;10.50;94.90;;;;;;4852014;29;20548;-61
2022/04/17 02:09:56;;;;;;;1.33;1.23;;;10.50;95.00;;;;;;4844894;29;20554;-61
2022/04/17 02:12:26;;;;;;;1.83;0.93;;;10.40;94.70;;;;;;4833850;29;20466;-62
2022/04/17 02:14:57;;;;;;;1.67;0.90;;;10.30;94.60;;;;;;4840033;29;20486;-61
2022/04/17 02:17:28;;;;;;;1.17;0.80;;;10.20;94.70;;;;;;4846202;29;20463;-62
2022/04/17 02:20:00;;;;;;;0.80;0.80;;;10.00;95.40;;;;;;4838667;29;20435;-61
2022/04/17 02:22:32;;;;;;;0.83;0.83;;;9.90;96.70;;;;;;4848507;29;20472;-61
2022/04/17 02:25:03;;;;;;;1.00;0.77;;;9.80;96.50;;;;;;4842974;29;20526;-63
2022/04/17 02:27:34;;;;;;;1.30;1.20;;;9.60;97.00;;;;;;4845089;29;20620;-61
2022/04/17 02:30:06;;;;;;;1.30;1.20;;;9.50;98.00;;;;;;4844205;29;20497;-62
2022/04/17 02:32:37;;;;;;;1.20;1.10;;;9.40;98.10;;;;;;4850333;29;20474;-61
2022/04/17 02:35:09;;;;;;;3.13;1.40;;;9.30;99.10;;;;;;4847227;29;20465;-61
2022/04/17 02:37:42;;;;;;;2.53;1.60;;;9.30;99.90;;;;;;4850889;29;20585;-61
2022/04/17 02:40:13;;;;;;;1.35;1.25;;;9.20;99.90;;;;;;4838126;29;20466;-61
2022/04/17 02:42:44;;;;;;;1.83;1.10;;;9.20;99.90;;;;;;4849614;29;20228;-61
2022/04/17 02:45:16;;;;;;;0.63;0.60;;;9.20;99.90;;;;;;4850150;29;20494;-62
2022/04/17 02:47:50;;;;;;;2.33;1.08;;;9.10;99.60;;;;;;4844369;29;20210;-61
2022/04/17 02:50:23;;;;;;;0.90;0.90;;;9.00;99.90;;;;;;4835584;29;20202;-61
2022/04/17 02:52:57;;;;;;;4.70;1.30;;;8.90;99.90;;;;;;4835029;29;20322;-61
2022/04/17 02:55:28;;;;;;;1.20;1.10;;;8.90;99.90;;;;;;4838722;29;20458;-60
2022/04/17 02:57:59;;;;;;;1.30;1.17;;;8.80;99.90;;;;;;4836763;29;20305;-60
2022/04/17 03:00:31;;;;;;;1.33;1.23;;;8.70;99.90;;;;;;4847697;29;20214;-61
2022/04/17 03:05:49;;;;;;;1.50;1.20;;;8.70;99.90;;;;;;4840439;29;20558;-61
2022/04/17 03:08:21;;;;;;;2.63;2.42;;;8.70;99.90;;;;;;4842829;29;20210;-60
2022/04/17 03:10:52;;;;;;;2.72;2.53;;;8.60;99.90;;;;;;4847668;29;20237;-61
2022/04/17 03:13:24;;;;;;;2.15;1.95;;;8.70;99.90;;;;;;4841438;29;20210;-61
2022/04/17 03:15:55;;;;;;;1.13;1.00;;;8.70;99.90;;;;;;4847410;29;20666;-60
2022/04/17 03:18:25;;;;;;;1.85;1.30;;;8.60;99.90;;;;;;4847605;29;20221;-61
2022/04/17 03:20:58;;;;;;;1.05;1.02;;;8.60;99.90;;;;;;4844262;29;20220;-61
2022/04/17 03:23:30;;;;;;;2.05;1.90;;;8.60;99.90;;;;;;4844645;29;20241;-61
2022/04/17 03:26:02;;;;;;;1.48;1.35;;;8.50;99.90;;;;;;4842671;29;20264;-59
2022/04/17 03:28:33;;;;;;;1.58;1.48;;;8.30;99.90;;;;;;4849139;29;20209;-61
2022/04/17 03:31:04;;;;;;;1.55;1.40;;;8.30;99.90;;;;;;4845224;29;20224;-61
2022/04/17 03:33:35;;;;;;;1.20;1.10;;;8.30;99.90;;;;;;4849959;29;20236;-61
2022/04/17 03:36:07;;;;;;;1.40;0.95;;;8.20;99.90;;;;;;4844894;29;20214;-59
2022/04/17 03:38:39;;;;;;;0.90;0.90;;;8.20;99.90;;;;;;4845254;29;20216;-59
2022/04/17 03:41:10;;;;;;;1.83;1.40;;;8.10;99.90;;;;;;4844731;29;20217;-59
2022/04/17 03:43:40;;;;;;;1.38;1.27;;;8.10;99.90;;;;;;4842751;29;20309;-59
2022/04/17 03:46:11;;;;;;;1.35;1.02;;;8.10;99.90;;;;;;4850249;29;20251;-59
2022/04/17 03:48:42;;;;;;;0.90;0.90;;;8.10;99.90;;;;;;4845921;29;20222;-59
2022/04/17 03:51:13;;;;;;;1.70;1.10;;;8.00;99.90;;;;;;4843190;29;20213;-60
2022/04/17 03:53:46;;;;;;;2.20;1.10;;;8.00;99.90;;;;;;4848178;29;20216;-60
2022/04/17 03:56:17;;;;;;;1.40;1.23;;;8.00;99.90;;;;;;4841678;29;20229;-59
2022/04/17 03:58:48;;;;;;;1.00;1.00;;;8.00;99.90;;;;;;4847334;29;20551;-59
2022/04/17 04:01:19;;;;;;;1.65;0.88;;;7.90;99.90;;;;;;4843485;29;20218;-59
2022/04/17 04:03:51;;;;;;;1.13;0.80;;;7.90;99.90;;;;;;4843447;29;20201;-60
2022/04/17 04:06:21;;;;;;;1.10;0.90;;;7.90;99.90;;;;;;4845393;29;20225;-60
2022/04/17 04:08:54;;;;;;;1.67;1.10;;;7.90;99.90;;;;;;4847107;29;20222;-60
2022/04/17 04:11:25;;;;;;;1.27;1.17;;;7.80;99.90;;;;;;4850372;29;20296;-60
2022/04/17 04:13:55;;;;;;;1.23;1.15;;;7.80;99.90;;;;;;4841728;29;20213;-59
2022/04/17 04:16:26;;;;;;;1.17;1.08;;;7.80;99.90;;;;;;4840096;29;20229;-59
2022/04/17 04:18:57;;;;;;;2.17;1.00;;;7.80;99.90;;;;;;4839846;29;20281;-59
2022/04/17 04:21:28;;;;;;;1.17;1.08;;;7.80;99.90;;;;;;4846586;29;20202;-59
2022/04/17 04:24:00;;;;;;;1.10;1.00;;;7.80;99.90;;;;;;4845137;29;20209;-60
2022/04/17 04:26:31;;;;;;;1.25;1.15;;;7.80;99.90;;;;;;4848938;29;20237;-61
2022/04/17 04:29:01;;;;;;;1.05;0.80;;;7.80;99.90;;;;;;4844576;29;20213;-61
2022/04/17 04:31:31;;;;;;;1.10;1.00;;;7.80;99.90;;;;;;4833676;29;20218;-61
2022/04/17 04:34:02;;;;;;;0.60;0.60;;;7.90;99.90;;;;;;4842555;29;20513;-61
2022/04/17 04:36:33;;;;;;;0.90;0.90;;;7.90;99.90;;;;;;4850693;29;20228;-61
2022/04/17 04:39:05;;;;;;;1.25;0.95;;;8.00;99.90;;;;;;4847456;29;20289;-61
2022/04/17 04:41:36;;;;;;;0.75;0.75;;;8.00;99.90;;;;;;4848266;29;20221;-60
2022/04/17 04:44:07;;;;;;;1.17;1.08;;;8.10;99.90;;;;;;4846984;29;20221;-60
2022/04/17 04:46:37;;;;;;;1.95;0.85;;;8.00;99.90;;;;;;4845184;29;20244;-61
2022/04/17 04:51:56;;;;;;;1.25;0.80;;;8.10;99.90;;;;;;4845489;29;20237;-61
2022/04/17 04:54:28;;;;;;;1.13;1.00;;;8.10;99.90;;;;;;4836389;29;20294;-60
2022/04/17 04:57:00;;;;;;;1.77;1.50;;;8.10;99.90;;;;;;4849690;29;20235;-60
2022/04/17 04:59:31;;;;;;;3.03;0.75;;;8.10;99.90;;;;;;4841715;29;20213;-61
2022/04/17 05:02:02;;;;;;;1.25;0.85;;;8.10;99.90;;;;;;4842390;29;20229;-61
2022/04/17 05:04:33;;;;;;;0.70;0.70;;;7.90;99.90;;;;;;4837114;29;20212;-60
2022/04/17 05:07:04;;;;;;;1.85;0.75;;;7.90;99.90;;;;;;4843528;29;20236;-61
2022/04/17 05:09:38;;;;;;;2.05;0.75;;;8.00;99.90;;;;;;4847951;29;20248;-60
2022/04/17 05:12:10;;;;;;;0.85;0.85;;;7.90;99.90;;;;;;4847723;29;20213;-60
2022/04/17 05:14:44;;;;;;;2.40;0.93;;;7.90;99.90;;;;;;4841702;29;20964;-60
2022/04/17 05:17:14;;;;;;;1.02;1.00;;;7.80;99.90;;;;;;4849225;29;20224;-60
2022/04/17 05:19:45;;;;;;;3.33;1.15;;;7.80;99.90;;;;;;4848642;29;20209;-60
2022/04/17 05:22:17;;;;;;;1.20;1.15;;;7.80;99.90;;;;;;4845015;29;20224;-60
2022/04/17 05:24:49;;;;;;;1.42;1.20;;;7.80;99.90;;;;;;4847016;29;20242;-60
2022/04/17 05:27:23;;;;;;;1.70;1.20;;;7.70;99.90;;;;;;4834565;29;20242;-60
2022/04/17 05:29:54;;;;;;;3.95;1.10;;;7.70;99.90;;;;;;4838679;29;20226;-60
2022/04/17 05:32:25;;;;;;;1.10;1.00;;;7.80;99.90;;;;;;4848954;29;20225;-60
2022/04/17 05:34:55;;;;;;;1.10;1.10;;;7.80;99.90;;;;;;4843549;29;20264;-61
2022/04/17 05:37:27;;;;;;;2.47;1.45;;;7.70;99.90;;;;;;4849551;29;20209;-61
2022/04/17 05:39:59;;;;;;;1.30;1.10;;;7.80;99.90;;;;;;4837829;29;20206;-60
2022/04/17 05:42:31;;;;;;;1.35;1.25;;;7.90;99.90;;;;;;4849304;29;20249;-61
2022/04/17 05:45:02;;;;;;;1.70;1.60;;;7.90;99.90;;;;;;4849969;29;20232;-60
2022/04/17 05:47:33;;;;;;;1.80;1.45;;;7.90;99.90;;;;;;4849641;29;20240;-61
2022/04/17 05:50:05;;;;;;;1.40;1.30;;;7.90;99.90;;;;;;4841566;29;20281;-60
2022/04/17 05:52:36;;;;;;;1.20;1.10;;;8.00;99.90;;;;;;4846058;29;20289;-60
2022/04/17 05:55:11;;;;;;;2.92;1.15;;;8.00;99.90;;;;;;4846059;29;20221;-60
2022/04/17 05:57:41;;;;;;;1.77;1.30;;;8.00;99.90;;;;;;4848053;29;20216;-60
2022/04/17 06:00:14;;;;;;;1.50;1.40;;;8.00;99.90;;;;;;4847680;29;20293;-60
2022/04/17 06:02:46;;;;;;;1.23;1.10;;;8.00;99.90;;;;;;4851711;29;20201;-60
2022/04/17 06:05:20;;;;;;;1.27;1.10;;;8.00;99.90;;;;;;4850290;29;20228;-61
2022/04/17 06:07:50;;;;;;;2.45;1.63;;;7.90;99.90;;;;;;4850846;29;20567;-60
2022/04/17 06:10:23;;;;;;;1.70;1.60;;;8.00;99.90;;;;;;4852069;29;20245;-61
2022/04/17 06:12:53;;;;;;;1.50;1.30;;;8.20;99.90;;;;;;4851560;29;20219;-61
2022/04/17 06:15:24;;;;;;;2.08;1.40;;;8.10;99.90;;;;;;4842883;29;20210;-60
2022/04/17 06:17:55;;;;;;;1.70;1.60;;;8.20;99.90;;;;;;4845963;29;20213;-61
2022/04/17 06:20:26;;;;;;;1.73;1.23;;;8.10;99.90;;;;;;4843954;29;20201;-60
2022/04/17 06:22:57;;;;;;;1.88;1.50;;;8.10;99.90;;;;;;4852173;29;20240;-60
2022/04/17 06:25:29;;;;;;;5.85;1.77;;;8.20;99.90;;;;;;4843587;29;20222;-61
2022/04/17 06:28:00;;;;;;;1.65;1.55;;;8.00;99.90;;;;;;4840842;29;20234;-60
2022/04/17 06:30:31;;;;;;;2.95;2.20;;;8.10;99.90;;;;;;4847849;29;20243;-60
2022/04/17 06:33:01;;;;;;;1.45;1.35;;;8.00;99.90;;;;;;4845746;29;20205;-59
2022/04/17 06:35:32;;;;;;;1.70;1.60;;;8.00;99.90;;;;;;4843694;29;20201;-59
2022/04/17 06:38:05;;;;;;;1.60;1.50;;;8.10;99.90;;;;;;4839809;29;20213;-59
2022/04/17 06:40:38;;;;;;;1.63;1.52;;;8.10;99.90;;;;;;4846550;29;20210;-59
2022/04/17 06:43:10;;;;;;;2.33;1.65;;;8.00;99.90;;;;;;4839564;29;20224;-60
2022/04/17 06:45:41;;;;;;;2.08;1.88;;;8.00;99.90;;;;;;4851474;29;20217;-60
2022/04/17 06:48:17;;;;;;;2.13;1.92;;;7.90;99.90;;;;;;4851004;29;20240;-60
2022/04/17 06:50:49;;;;;;;1.85;1.75;;;7.90;99.90;;;;;;4849003;29;20646;-60
2022/04/17 06:53:21;;;;;;;2.20;2.00;;;7.90;99.90;;;;;;4851140;29;20213;-60
2022/04/17 06:55:54;;;;;;;1.75;1.65;;;7.90;99.90;;;;;;4845149;29;20220;-60
2022/04/17 06:58:24;;;;;;;1.63;1.52;;;7.80;99.90;;;;;;4843167;29;20209;-61
2022/04/17 07:00:55;;;;;;;2.60;2.15;;;7.70;99.90;;;;;;4850676;29;20734;-60
2022/04/17 07:03:26;;;;;;;2.00;1.90;;;7.60;99.90;;;;;;4848068;29;20209;-60
2022/04/17 07:05:57;;;;;;;3.92;2.40;;;7.60;99.90;;;;;;4838539;29;20240;-60
2022/04/17 07:08:28;;;;;;;1.42;1.33;;;7.60;99.90;;;;;;4844770;29;20717;-60
2022/04/17 07:11:01;;;;;;;1.45;1.33;;;7.60;99.90;;;;;;4845179;29;20249;-60
2022/04/17 07:13:32;;;;;;;1.75;1.52;;;7.60;99.90;;;;;;4847939;29;20224;-60
2022/04/17 07:16:04;;;;;;;1.70;1.60;;;7.60;99.90;;;;;;4846722;29;20304;-60
2022/04/17 07:18:35;;;;;;;2.17;1.38;;;7.50;99.90;;;;;;4843809;29;20202;-60
2022/04/17 07:21:06;;;;;;;3.35;1.50;;;7.40;99.90;;;;;;4851309;29;20217;-60
2022/04/17 07:23:36;;;;;;;1.65;1.40;;;7.40;99.90;;;;;;4850216;29;20225;-60
2022/04/17 07:26:09;;;;;;;1.80;1.70;;;7.30;99.90;;;;;;4845562;29;20210;-59
2022/04/17 07:28:39;;;;;;;1.90;1.80;;;7.20;99.90;;;;;;4834332;29;20245;-60
2022/04/17 07:31:12;;;;;;;2.65;2.00;;;7.10;99.90;;;;;;4846963;29;20216;-60
2022/04/17 07:33:43;;;;;;;2.25;1.60;;;7.00;99.90;;;;;;4850547;29;20257;-60
2022/04/17 07:36:14;;;;;;;1.70;1.60;;;7.00;99.90;;;;;;4848503;29;20224;-60
2022/04/17 07:38:44;;;;;;;1.98;1.77;;;7.00;99.90;;;;;;4845753;29;20221;-60
2022/04/17 07:41:17;;;;;;;2.05;1.33;;;6.80;99.90;;;;;;4849647;29;20243;-60
2022/04/17 07:43:47;;;;;;;2.78;1.70;;;6.70;99.90;;;;;;4833154;29;20217;-60
2022/04/17 07:46:18;;;;;;;3.47;1.88;;;6.60;99.90;;;;;;4834927;29;20230;-60
2022/04/17 07:48:49;;;;;;;2.28;1.60;;;6.60;99.90;;;;;;4841145;29;20232;-59
2022/04/17 07:51:20;;;;;;;2.78;1.80;;;6.50;99.90;;;;;;4849005;29;20213;-60
2022/04/17 07:53:51;;;;;;;2.83;2.35;;;6.60;99.90;;;;;;4847847;29;20293;-59
2022/04/17 07:56:24;;;;;;;1.65;1.55;;;6.70;99.90;;;;;;4850587;29;20213;-59
2022/04/17 07:58:56;;;;;;;1.80;1.55;;;6.80;99.90;;;;;;4850405;29;20209;-60
2022/04/17 08:01:27;;;;;;;1.60;1.50;;;6.90;99.90;;;;;;4845444;29;20217;-60
2022/04/17 08:03:58;;;;;;;1.90;1.75;;;6.80;99.90;;;;;;4835271;29;20698;-59
2022/04/17 08:06:29;;;;;;;1.90;1.75;;;6.70;99.90;;;;;;4839824;29;20217;-59
2022/04/17 08:09:00;;;;;;;1.98;1.45;;;6.80;99.90;;;;;;4845460;29;20237;-59
2022/04/17 08:11:34;;;;;;;1.40;1.30;;;6.70;99.90;;;;;;4833397;29;20238;-59
2022/04/17 08:14:04;;;;;;;1.80;1.70;;;6.70;99.90;;;;;;4836435;29;20224;-59
2022/04/17 08:16:37;;;;;;;1.90;1.50;;;6.70;99.90;;;;;;4844481;29;20208;-60
2022/04/17 08:19:08;;;;;;;1.58;1.48;;;6.60;99.90;;;;;;4834262;29;20274;-59
2022/04/17 08:21:40;;;;;;;1.60;1.50;;;6.50;99.90;;;;;;4847007;29;20531;-59
2022/04/17 08:24:10;;;;;;;1.35;1.13;;;6.50;99.90;;;;;;4845509;29;20218;-59
2022/04/17 08:26:45;;;;;;;1.60;1.20;;;6.60;99.90;;;;;;4849438;29;20235;-60
2022/04/17 08:29:19;;;;;;;1.50;1.40;;;6.50;99.90;;;;;;4848041;29;20240;-59
2022/04/17 08:31:49;;;;;;;1.50;1.40;;;6.50;99.90;;;;;;4850234;29;20205;-60
2022/04/17 08:34:21;;;;;;;3.15;1.50;;;6.40;99.90;;;;;;4850080;29;20232;-59
2022/04/17 08:36:52;;;;;;;1.40;1.30;;;6.40;99.90;;;;;;4849770;29;20224;-59
2022/04/17 08:39:22;;;;;;;1.65;1.55;;;6.40;99.90;;;;;;4848201;29;20217;-59
2022/04/17 08:41:55;;;;;;;1.75;1.65;;;6.50;99.90;;;;;;4843222;29;20214;-59
2022/04/17 08:44:26;;;;;;;1.70;1.55;;;6.50;99.90;;;;;;4843110;29;20217;-59
2022/04/17 08:46:57;;;;;;;2.13;2.00;;;6.50;99.90;;;;;;4838536;29;20208;-60
2022/04/17 08:49:28;;;;;;;2.00;1.80;;;6.50;99.90;;;;;;4847048;29;20240;-59
2022/04/17 08:52:04;;;;;;;1.70;1.60;;;6.40;99.90;;;;;;4836908;29;20274;-60
2022/04/17 08:54:35;;;;;;;2.25;2.05;;;6.40;99.90;;;;;;4849882;29;20210;-59
2022/04/17 08:57:10;;;;;;;2.10;1.70;;;6.40;99.90;;;;;;4849675;29;20217;-59
2022/04/17 08:59:41;;;;;;;2.20;2.05;;;6.40;99.90;;;;;;4841945;29;20208;-60
2022/04/17 09:02:17;;;;;;;1.90;1.80;;;6.30;99.90;;;;;;4849437;29;20226;-59
2022/04/17 09:04:48;;;;;;;2.05;1.80;;;6.30;99.90;;;;;;4846776;29;20211;-60
2022/04/17 09:07:22;;;;;;;2.10;1.90;;;6.30;99.90;;;;;;4848115;29;20228;-60
2022/04/17 09:09:54;;;;;;;2.25;1.77;;;6.30;99.90;;;;;;4849633;29;20245;-60
2022/04/17 09:12:28;;;;;;;3.15;2.90;;;6.30;99.90;;;;;;4839580;29;20221;-59
2022/04/17 09:14:59;;;;;;;3.65;2.70;;;6.20;99.90;;;;;;4847615;29;20658;-59
2022/04/17 09:17:31;;;;;;;2.63;2.42;;;6.30;99.90;;;;;;4836353;29;20309;-60
2022/04/17 09:20:05;;;;;;;4.93;3.28;;;6.30;99.90;;;;;;4847002;29;20209;-60
2022/04/17 09:22:48;;;;;;;3.35;3.10;;;6.30;99.90;;;;;;4847842;29;20540;-60
2022/04/17 09:25:23;;;;;;;2.90;2.60;;;6.20;99.90;;;;;;4848305;29;20214;-59
2022/04/17 09:28:00;;;;;;;3.60;3.30;;;6.20;99.90;;;;;;4848134;29;20217;-59
2022/04/17 09:30:32;;;;;;;3.42;3.00;;;6.30;99.90;;;;;;4839446;29;20233;-59
2022/04/17 09:33:06;;;;;;;3.83;3.10;;;6.30;99.90;;;;;;4843044;29;20214;-60
2022/04/17 09:35:37;;;;;;;3.40;2.88;;;6.30;99.90;;;;;;4853258;29;20712;-60
2022/04/17 09:38:09;;;;;;;2.35;2.15;;;6.40;99.90;;;;;;4846546;29;20202;-60
2022/04/17 09:40:40;;;;;;;2.40;2.20;;;6.50;99.90;;;;;;4843441;29;20225;-60
2022/04/17 09:43:13;;;;;;;2.38;2.20;;;6.50;99.90;;;;;;4851408;29;20210;-59
2022/04/17 09:46:00;;;;;;;2.40;2.20;;;6.60;99.90;;;;;;4844845;29;20211;-59
2022/04/17 09:48:33;;;;;;;2.20;2.00;;;6.60;99.90;;;;;;4848204;29;20237;-59
2022/04/17 09:51:18;;;;;;;2.40;2.03;;;6.60;99.90;;;;;;4848918;29;20217;-59
2022/04/17 09:53:59;;;;;;;2.40;2.20;;;6.60;99.90;;;;;;4840992;29;20225;-59
2022/04/17 09:56:34;;;;;;;2.35;2.15;;;6.60;99.90;;;;;;4838153;29;20252;-59
2022/04/17 09:59:18;;;;;;;3.15;2.40;;;6.60;99.90;;;;;;4848132;29;20212;-59
2022/04/17 10:01:50;;;;;;;2.20;2.00;;;6.50;99.90;;;;;;4850151;29;20213;-59
2022/04/17 10:04:24;;;;;;;2.40;2.13;;;6.50;99.90;;;;;;4852196;29;20213;-59
2022/04/17 10:06:57;;;;;;;2.85;2.03;;;6.50;99.90;;;;;;4850405;29;20214;-60
2022/04/17 10:09:28;;;;;;;2.35;2.00;;;6.50;99.90;;;;;;4838687;29;20244;-60
2022/04/17 10:12:00;;;;;;;1.77;1.67;;;6.60;99.90;;;;;;4836799;29;20220;-59
2022/04/17 10:14:34;;;;;;;2.67;2.30;;;6.70;99.90;;;;;;4842344;29;20213;-59
2022/04/17 10:17:08;;;;;;;2.17;1.98;;;6.70;99.90;;;;;;4842329;29;20221;-59
2022/04/17 10:19:43;;;;;;;2.50;2.30;;;6.70;99.90;;;;;;4851088;29;20213;-59
2022/04/17 10:22:18;;;;;;;4.55;2.00;;;6.80;99.90;;;;;;4847874;29;20215;-59
2022/04/17 10:24:53;;;;;;;2.20;2.10;;;6.80;99.90;;;;;;4842832;29;20213;-59
2022/04/17 10:27:28;;;;;;;3.08;1.90;;;6.80;99.90;;;;;;4841210;29;20213;-60
2022/04/17 10:30:06;;;;;;;2.10;1.83;;;6.80;99.90;;;;;;4852449;29;20630;-59
2022/04/17 10:32:56;;;;;;;3.25;2.15;;;6.80;99.90;;;;;;4845851;29;20909;-60
2022/04/17 10:35:41;;;;;;;1.92;1.75;;;6.80;99.90;;;;;;4846662;29;20340;-59
2022/04/17 10:38:28;;;;;;;2.17;1.67;;;6.70;99.90;;;;;;4850789;29;20213;-60
2022/04/17 10:41:01;;;;;;;2.10;1.80;;;6.70;99.90;;;;;;4851135;29;20217;-60
2022/04/17 10:43:36;;;;;;;1.90;1.80;;;6.60;99.90;;;;;;4847039;29;20228;-59
2022/04/17 10:46:13;;;;;;;2.03;1.88;;;6.60;99.90;;;;;;4849241;29;20284;-59
2022/04/17 10:48:48;;;;;;;1.98;1.80;;;6.60;99.90;;;;;;4848685;29;20246;-60
2022/04/17 10:51:26;;;;;;;3.42;2.08;;;6.60;99.90;;;;;;4845703;29;20312;-59
2022/04/17 10:54:06;;;;;;;1.70;1.60;;;6.60;99.90;;;;;;4848770;29;20217;-59
2022/04/17 10:56:39;;;;;;;3.35;1.92;;;6.60;99.90;;;;;;4848920;29;20217;-59
2022/04/17 10:59:18;;;;;;;1.80;1.70;;;6.60;99.90;;;;;;4844011;29;20217;-60
2022/04/17 11:02:01;;;;;;;2.13;2.00;;;6.60;99.90;;;;;;4846410;29;20300;-59
2022/04/17 11:04:39;;;;;;;2.60;2.40;;;6.40;99.90;;;;;;4851193;29;20220;-60
2022/04/17 11:07:27;;;;;;;1.85;1.75;;;6.40;99.90;;;;;;4841627;29;20593;-59
2022/04/17 11:10:22;;;;;;;1.52;1.42;;;6.40;99.90;;;;;;4840944;29;20249;-59
2022/04/17 11:12:55;;;;;;;1.88;1.70;;;6.40;99.90;;;;;;4850781;29;20205;-59
2022/04/17 11:15:30;;;;;;;3.33;1.65;;;6.30;99.90;;;;;;4846120;29;20214;-59
2022/04/17 11:18:04;;;;;;;2.90;1.80;;;6.40;99.90;;;;;;4838699;29;20583;-59
2022/04/17 11:20:34;;;;;;;2.95;1.92;;;6.40;99.90;;;;;;4849978;29;20209;-60
2022/04/17 11:23:05;;;;;;;1.90;1.70;;;6.40;99.90;;;;;;4851245;29;20233;-60
2022/04/17 11:25:54;;;;;;;4.30;2.92;;;6.30;99.90;;;;;;4850639;29;20232;-59
2022/04/17 11:28:42;;;;;;;1.80;1.55;;;6.20;99.90;;;;;;4851321;29;20213;-60
2022/04/17 11:31:31;;;;;;;1.73;1.63;;;6.10;99.90;;;;;;4851372;29;20241;-60
2022/04/17 11:34:04;;;;;;;2.67;1.48;;;6.10;99.90;;;;;;4850677;29;20227;-59
2022/04/17 11:36:35;;;;;;;1.77;1.60;;;6.00;99.90;;;;;;4851177;29;20220;-60
2022/04/17 11:39:05;;;;;;;2.15;2.03;;;5.90;99.90;;;;;;4840707;29;20217;-59
2022/04/17 11:41:36;;;;;;;1.58;1.48;;;6.00;99.90;;;;;;4839670;29;20209;-59
2022/04/17 11:44:07;;;;;;;2.50;1.50;;;5.90;99.90;;;;;;4846228;29;20237;-60
2022/04/17 11:46:38;;;;;;;1.70;1.40;;;5.90;99.90;;;;;;4846972;29;20216;-59
2022/04/17 11:49:11;;;;;;;1.83;1.73;;;5.80;99.90;;;;;;4850705;29;20205;-59
2022/04/17 11:51:44;;;;;;;1.70;1.60;;;5.80;99.90;;;;;;4848823;29;20236;-59
2022/04/17 11:54:33;;;;;;;2.53;1.88;;;5.80;99.90;;;;;;4850026;29;20227;-60
2022/04/17 11:57:04;;;;;;;2.20;1.98;;;5.80;99.90;;;;;;4850394;29;20213;-59
2022/04/17 11:59:46;;;;;;;2.33;1.52;;;5.70;99.90;;;;;;4844041;29;20222;-59
2022/04/17 12:02:18;;;;;;;2.05;1.85;;;5.70;99.90;;;;;;4846919;29;20232;-59
2022/04/17 12:04:52;;;;;;;2.28;2.10;;;5.60;99.90;;;;;;4849156;29;20209;-59
2022/04/17 12:07:25;;;;;;;2.20;2.00;;;5.50;99.90;;;;;;4849401;29;20213;-59
2022/04/17 12:10:08;;;;;;;2.15;1.80;;;5.50;99.90;;;;;;4846112;29;20253;-59
2022/04/17 12:12:41;;;;;;;1.98;1.88;;;5.30;99.90;;;;;;4843343;29;20221;-59
2022/04/17 12:15:13;;;;;;;1.77;1.67;;;5.30;99.90;;;;;;4851724;29;20300;-59
2022/04/17 12:17:45;;;;;;;3.92;2.50;;;5.20;99.90;;;;;;4850400;29;20210;-59
2022/04/17 12:20:19;;;;;;;2.38;2.10;;;5.10;99.90;;;;;;4835808;29;20210;-59
2022/04/17 12:22:49;;;;;;;2.58;2.38;;;5.10;99.90;;;;;;4850731;29;20209;-58
2022/04/17 12:25:21;;;;;;;2.47;2.25;;;5.10;99.90;;;;;;4851319;29;20214;-59
2022/04/17 12:27:53;;;;;;;2.00;1.90;;;5.00;99.90;;;;;;4832548;29;20232;-58
2022/04/17 12:30:24;;;;;;;2.10;1.98;;;4.80;99.90;;;;;;4839843;29;20237;-57
2022/04/17 12:32:59;;;;;;;2.55;1.88;;;4.70;99.90;;;;;;4850649;29;20568;-59
2022/04/17 12:35:33;;;;;;;3.10;2.30;;;4.70;99.90;;;;;;4840672;29;20214;-59
2022/04/17 12:38:05;;;;;;;3.38;1.80;;;4.60;99.90;;;;;;4844812;29;20212;-58
2022/04/17 12:40:44;;;;;;;4.43;2.60;;;4.60;99.90;;;;;;4848736;29;20277;-59
2022/04/17 12:43:19;;;;;;;2.22;2.03;;;4.50;99.90;;;;;;4845273;29;20677;-59
2022/04/17 12:45:57;;;;;;;2.50;2.30;;;4.40;99.90;;;;;;4844978;29;20217;-58
2022/04/17 12:48:29;;;;;;;2.25;2.05;;;4.40;99.90;;;;;;4837206;29;20308;-59
2022/04/17 12:51:04;;;;;;;2.60;2.25;;;4.40;99.90;;;;;;4849959;29;20244;-58
2022/04/17 12:53:40;;;;;;;2.20;2.10;;;4.30;99.90;;;;;;4841704;29;20276;-59
2022/04/17 12:56:12;;;;;;;2.60;2.40;;;4.20;99.90;;;;;;4841968;29;20223;-59
2022/04/17 12:58:55;;;;;;;2.40;2.20;;;4.10;99.90;;;;;;4838886;29;20229;-59
2022/04/17 13:01:28;;;;;;;3.05;2.75;;;4.10;99.90;;;;;;4843249;29;20205;-59
2022/04/17 13:04:12;;;;;;;3.00;2.10;;;4.20;99.90;;;;;;4848253;29;20213;-59
2022/04/17 13:06:45;;;;;;;2.42;2.15;;;4.10;99.90;;;;;;4840494;29;20214;-59
2022/04/17 13:09:18;;;;;;;2.17;1.98;;;4.00;99.90;;;;;;4850483;29;20260;-59
2022/04/17 13:11:51;;;;;;;2.60;1.90;;;3.90;99.90;;;;;;4853357;29;20317;-59
2022/04/17 13:14:22;;;;;;;4.50;2.20;;;3.80;99.90;;;;;;4851388;29;20203;-58
2022/04/17 13:16:56;;;;;;;2.78;2.58;;;3.70;99.90;;;;;;4852892;29;20228;-59
2022/04/17 13:19:28;;;;;;;2.65;2.30;;;3.70;99.90;;;;;;4848346;29;20628;-59
2022/04/17 13:22:01;;;;;;;2.78;2.55;;;3.70;99.90;;;;;;4849654;29;20226;-59
2022/04/17 13:24:32;;;;;;;3.30;2.85;;;3.70;99.90;;;;;;4851496;29;20231;-59
2022/04/17 13:27:02;;;;;;;3.22;3.00;;;3.70;99.90;;;;;;4852895;29;20220;-59
2022/04/17 13:29:33;;;;;;;2.38;2.17;;;3.60;99.90;;;;;;4847620;29;20201;-59
2022/04/17 13:32:05;;;;;;;3.33;3.00;;;3.60;99.90;;;;;;4844850;29;20245;-58